createdAt,value
2017-12-30T00:02:04.846Z,3.80
2017-12-30T00:04:39.468Z,3.60
2017-12-30T00:07:14.877Z,3.58
2017-12-30T00:09:49.873Z,4.20
2017-12-30T00:12:24.749Z,3.60
2017-12-30T00:14:58.850Z,3.10
2017-12-30T00:17:33.454Z,4.30
2017-12-30T00:20:08.096Z,4.97
2017-12-30T00:22:42.730Z,4.43
2017-12-30T00:25:17.562Z,4.73
2017-12-30T00:27:51.541Z,5.40
2017-12-30T00:30:25.387Z,4.30
2017-12-30T00:32:59.095Z,4.40
2017-12-30T00:35:33.707Z,5.00
2017-12-30T00:38:07.563Z,5.87
2017-12-30T00:40:42.249Z,5.57
2017-12-30T00:43:16.402Z,5.10
2017-12-30T00:45:51.676Z,4.67
2017-12-30T00:48:26.332Z,5.20
2017-12-30T00:51:00.090Z,5.90
2017-12-30T00:53:34.551Z,5.53
2017-12-30T00:56:09.240Z,5.60
2017-12-30T00:58:43.333Z,5.27
2017-12-30T01:01:17.879Z,4.80
2017-12-30T01:03:51.681Z,5.50
2017-12-30T01:06:26.237Z,5.70
2017-12-30T01:09:00.953Z,6.60
2017-12-30T01:11:34.811Z,4.67
2017-12-30T01:14:09.278Z,4.10
2017-12-30T01:16:43.998Z,4.50
2017-12-30T01:19:18.182Z,6.00
2017-12-30T01:21:53.534Z,4.87
2017-12-30T01:24:28.303Z,5.67
2017-12-30T01:27:02.341Z,7.13
2017-12-30T01:29:36.917Z,5.33
2017-12-30T01:32:10.641Z,6.43
2017-12-30T01:34:45.057Z,6.77
2017-12-30T01:37:19.725Z,6.20
2017-12-30T01:39:53.785Z,5.53
2017-12-30T01:42:27.564Z,7.30
2017-12-30T01:45:02.230Z,6.70
2017-12-30T01:47:36.131Z,7.63
2017-12-30T01:50:10.555Z,6.33
2017-12-30T01:52:44.356Z,7.60
2017-12-30T01:55:18.269Z,7.63
2017-12-30T01:57:52.993Z,8.13
2017-12-30T02:00:27.801Z,6.73
2017-12-30T02:03:01.704Z,8.50
2017-12-30T02:05:35.580Z,9.20
2017-12-30T02:08:09.449Z,8.03
2017-12-30T02:10:43.956Z,8.40
2017-12-30T02:13:17.520Z,8.40
2017-12-30T02:15:51.356Z,8.87
2017-12-30T02:18:24.969Z,8.40
2017-12-30T02:20:58.683Z,8.47
2017-12-30T02:23:33.309Z,8.40
2017-12-30T02:26:07.047Z,9.70
2017-12-30T02:28:41.568Z,10.13
2017-12-30T02:31:17.155Z,7.93
2017-12-30T02:33:51.698Z,10.17
2017-12-30T02:36:26.398Z,10.30
2017-12-30T02:39:01.332Z,9.17
2017-12-30T02:41:36.608Z,10.40
2017-12-30T02:44:11.400Z,9.43
2017-12-30T02:46:46.678Z,10.30
2017-12-30T02:49:20.296Z,9.10
2017-12-30T02:51:54.118Z,10.37
2017-12-30T02:54:28.085Z,9.47
2017-12-30T02:57:03.316Z,9.30
2017-12-30T02:59:39.022Z,9.57
2017-12-30T03:02:14.273Z,9.13
2017-12-30T03:04:48.934Z,10.37
2017-12-30T03:07:22.943Z,8.67
2017-12-30T03:09:57.730Z,9.20
2017-12-30T03:12:32.247Z,5.27
2017-12-30T03:15:05.983Z,10.13
2017-12-30T03:17:41.326Z,8.00
2017-12-30T03:20:15.145Z,10.23
2017-12-30T03:22:49.018Z,10.00
2017-12-30T03:25:23.392Z,11.10
2017-12-30T03:27:57.587Z,8.77
2017-12-30T03:30:31.911Z,7.90
2017-12-30T03:33:06.390Z,10.63
2017-12-30T03:35:40.865Z,10.70
2017-12-30T03:38:15.775Z,9.70
2017-12-30T03:40:50.401Z,10.70
2017-12-30T03:43:26.047Z,10.27
2017-12-30T03:46:00.132Z,8.50
2017-12-30T03:48:34.877Z,10.27
2017-12-30T03:51:08.906Z,10.03
2017-12-30T03:53:42.690Z,10.43
2017-12-30T03:56:16.355Z,9.77
2017-12-30T03:58:50.990Z,10.60
2017-12-30T04:01:25.990Z,8.53
2017-12-30T04:04:01.689Z,8.47
2017-12-30T04:06:37.747Z,11.13
2017-12-30T04:09:12.784Z,9.30
2017-12-30T04:11:47.748Z,9.13
2017-12-30T04:14:22.481Z,8.60
2017-12-30T04:16:56.309Z,9.00
2017-12-30T04:19:29.991Z,6.83
2017-12-30T04:22:03.604Z,8.60
2017-12-30T04:24:38.157Z,8.00
2017-12-30T04:27:12.808Z,7.70
2017-12-30T04:29:46.836Z,9.20
2017-12-30T04:32:21.649Z,9.23
2017-12-30T04:34:56.280Z,8.53
2017-12-30T04:37:30.897Z,7.70
2017-12-30T04:40:05.641Z,8.53
2017-12-30T04:42:40.360Z,8.90
2017-12-30T04:45:15.162Z,8.90
2017-12-30T04:47:49.204Z,6.80
2017-12-30T04:50:23.061Z,7.63
2017-12-30T04:52:56.926Z,6.80
2017-12-30T04:55:30.847Z,7.20
2017-12-30T04:58:04.804Z,7.10
2017-12-30T05:00:38.428Z,6.77
2017-12-30T05:03:13.886Z,7.67
2017-12-30T05:05:48.820Z,5.63
2017-12-30T05:08:22.892Z,6.00
2017-12-30T05:10:56.601Z,6.57
2017-12-30T05:13:31.366Z,6.10
2017-12-30T05:16:05.633Z,7.13
2017-12-30T05:18:40.922Z,5.93
2017-12-30T05:21:14.910Z,6.80
2017-12-30T05:23:48.627Z,6.37
2017-12-30T05:26:23.063Z,5.03
2017-12-30T05:28:57.869Z,5.90
2017-12-30T05:31:32.553Z,6.00
2017-12-30T05:34:07.212Z,5.90
2017-12-30T05:36:41.839Z,5.90
2017-12-30T05:39:16.587Z,5.93
2017-12-30T05:41:50.392Z,6.40
2017-12-30T05:44:24.912Z,6.40
2017-12-30T05:46:59.404Z,8.00
2017-12-30T05:49:34.149Z,6.07
2017-12-30T05:52:08.360Z,5.00
2017-12-30T05:54:42.907Z,6.10
2017-12-30T05:57:16.477Z,6.30
2017-12-30T05:59:50.200Z,5.53
2017-12-30T06:02:24.718Z,5.90
2017-12-30T06:04:59.555Z,6.33
2017-12-30T06:07:34.437Z,5.53
2017-12-30T06:10:09.100Z,5.57
2017-12-30T06:12:43.260Z,5.07
2017-12-30T06:15:18.238Z,4.30
2017-12-30T06:17:52.946Z,4.40
2017-12-30T06:20:27.500Z,4.43
2017-12-30T06:23:02.332Z,4.43
2017-12-30T06:25:36.305Z,5.00
2017-12-30T06:28:10.253Z,5.93
2017-12-30T06:30:44.876Z,5.83
2017-12-30T06:33:18.690Z,5.20
2017-12-30T06:35:53.291Z,4.70
2017-12-30T06:38:27.162Z,5.60
2017-12-30T06:41:00.926Z,4.17
2017-12-30T06:43:35.663Z,5.50
2017-12-30T06:46:10.239Z,4.80
2017-12-30T06:48:44.006Z,5.50
2017-12-30T06:51:18.508Z,5.13
2017-12-30T06:53:52.825Z,7.10
2017-12-30T06:56:27.163Z,5.50
2017-12-30T06:59:01.603Z,5.20
2017-12-30T07:01:35.543Z,6.80
2017-12-30T07:04:09.200Z,6.10
2017-12-30T07:06:43.790Z,4.70
2017-12-30T07:09:19.162Z,3.77
2017-12-30T07:11:53.730Z,5.67
2017-12-30T07:14:28.997Z,5.20
2017-12-30T07:17:03.817Z,3.97
2017-12-30T07:19:37.835Z,3.83
2017-12-30T07:22:13.125Z,4.57
2017-12-30T07:24:48.102Z,4.80
2017-12-30T07:27:22.792Z,4.40
2017-12-30T07:29:57.646Z,4.40
2017-12-30T07:32:32.379Z,4.27
2017-12-30T07:35:07.417Z,3.33
2017-12-30T07:37:42.179Z,3.67
2017-12-30T07:40:17.005Z,4.40
2017-12-30T07:42:52.560Z,3.83
2017-12-30T07:45:26.739Z,3.90
2017-12-30T07:48:01.081Z,4.10
2017-12-30T07:50:35.410Z,3.50
2017-12-30T07:53:10.294Z,3.50
2017-12-30T07:55:44.732Z,3.60
2017-12-30T07:58:19.981Z,3.10
2017-12-30T08:00:55.311Z,3.77
2017-12-30T08:03:29.871Z,3.37
2017-12-30T08:06:04.956Z,3.33
2017-12-30T08:08:39.992Z,3.00
2017-12-30T08:11:13.864Z,2.70
2017-12-30T08:13:48.540Z,3.73
2017-12-30T08:16:22.750Z,3.90
2017-12-30T08:18:57.962Z,2.80
2017-12-30T08:21:32.517Z,1.80
2017-12-30T08:24:07.041Z,3.77
2017-12-30T08:26:41.620Z,3.33
2017-12-30T08:29:15.383Z,3.87
2017-12-30T08:31:49.730Z,1.80
2017-12-30T08:34:23.794Z,2.67
2017-12-30T08:36:58.213Z,4.40
2017-12-30T08:39:32.503Z,2.10
2017-12-30T08:42:06.835Z,2.80
2017-12-30T08:44:40.783Z,2.87
2017-12-30T08:47:15.848Z,3.37
2017-12-30T08:49:50.785Z,3.13
2017-12-30T08:52:26.275Z,2.77
2017-12-30T08:55:01.970Z,3.00
2017-12-30T08:57:36.545Z,2.60
2017-12-30T09:00:12.522Z,3.10
2017-12-30T09:02:47.512Z,4.97
2017-12-30T09:05:22.249Z,2.77
2017-12-30T09:07:56.892Z,2.10
2017-12-30T09:10:30.833Z,3.50
2017-12-30T09:13:04.911Z,2.63
2017-12-30T09:15:39.385Z,2.80
2017-12-30T09:18:13.042Z,2.80
2017-12-30T09:20:47.184Z,2.90
2017-12-30T09:23:22.366Z,2.37
2017-12-30T09:25:56.369Z,2.77
2017-12-30T09:28:30.140Z,2.20
2017-12-30T09:31:04.048Z,2.10
2017-12-30T09:33:37.806Z,3.00
2017-12-30T09:36:12.216Z,2.53
2017-12-30T09:38:46.576Z,2.70
2017-12-30T09:41:21.739Z,2.23
2017-12-30T09:43:56.708Z,1.60
2017-12-30T09:46:31.199Z,3.30
2017-12-30T09:49:05.986Z,2.60
2017-12-30T09:51:40.141Z,3.07
2017-12-30T09:54:14.763Z,2.77
2017-12-30T09:56:49.925Z,2.90
2017-12-30T09:59:24.462Z,4.20
2017-12-30T10:01:58.851Z,2.83
2017-12-30T10:04:33.351Z,3.30
2017-12-30T10:07:07.613Z,3.60
2017-12-30T10:09:41.837Z,2.40
2017-12-30T10:12:17.077Z,3.20
2017-12-30T10:14:50.981Z,4.40
2017-12-30T10:17:25.637Z,3.07
2017-12-30T10:20:00.045Z,2.87
2017-12-30T10:22:33.806Z,3.67
2017-12-30T10:25:08.636Z,3.17
2017-12-30T10:27:43.176Z,3.43
2017-12-30T10:30:17.792Z,3.67
2017-12-30T10:32:51.977Z,5.80
2017-12-30T10:35:27.271Z,3.07
2017-12-30T10:38:02.095Z,3.30
2017-12-30T10:40:36.692Z,2.93
2017-12-30T10:43:11.531Z,5.67
2017-12-30T10:45:46.253Z,2.20
2017-12-30T10:48:20.652Z,2.90
2017-12-30T10:50:55.810Z,2.97
2017-12-30T10:53:30.259Z,3.30
2017-12-30T10:56:04.905Z,2.20
2017-12-30T10:58:39.217Z,2.40
2017-12-30T11:01:13.805Z,2.47
2017-12-30T11:03:48.532Z,2.30
2017-12-30T11:06:23.214Z,1.90
2017-12-30T11:08:57.972Z,2.80
2017-12-30T11:11:32.635Z,2.97
2017-12-30T11:14:07.348Z,2.50
2017-12-30T11:16:41.952Z,2.07
2017-12-30T11:19:16.295Z,2.10
2017-12-30T11:21:51.379Z,2.20
2017-12-30T11:24:26.809Z,1.80
2017-12-30T11:27:01.758Z,2.87
2017-12-30T11:29:36.611Z,1.90
2017-12-30T11:32:11.346Z,2.77
2017-12-30T11:34:45.584Z,1.93
2017-12-30T11:37:20.788Z,2.13
2017-12-30T11:39:54.731Z,2.30
2017-12-30T11:42:28.406Z,2.13
2017-12-30T11:45:02.479Z,2.37
2017-12-30T11:47:36.877Z,1.97
2017-12-30T11:50:10.665Z,2.07
2017-12-30T11:52:46.716Z,2.27
2017-12-30T11:55:22.113Z,1.90
2017-12-30T11:57:55.795Z,1.40
2017-12-30T12:00:30.183Z,1.70
2017-12-30T12:03:05.880Z,1.97
2017-12-30T12:05:40.132Z,1.80
2017-12-30T12:08:14.523Z,1.73
2017-12-30T12:10:49.837Z,1.33
2017-12-30T12:13:25.029Z,1.70
2017-12-30T12:15:59.750Z,1.60
2017-12-30T12:18:33.677Z,1.70
2017-12-30T12:21:07.684Z,0.90
2017-12-30T12:23:42.922Z,2.90
2017-12-30T12:26:16.821Z,1.10
2017-12-30T12:28:50.895Z,1.00
2017-12-30T12:31:25.971Z,0.90
2017-12-30T12:34:00.831Z,1.07
2017-12-30T12:36:36.381Z,0.50
2017-12-30T12:39:11.009Z,0.80
2017-12-30T12:41:45.838Z,0.70
2017-12-30T12:44:21.754Z,0.90
2017-12-30T12:46:56.033Z,1.67
2017-12-30T12:49:30.018Z,1.10
2017-12-30T12:52:04.338Z,0.70
2017-12-30T12:54:39.269Z,0.70
2017-12-30T12:57:15.332Z,0.47
2017-12-30T12:59:49.777Z,1.00
2017-12-30T13:02:24.954Z,0.87
2017-12-30T13:04:58.769Z,0.80
2017-12-30T13:07:32.422Z,1.70
2017-12-30T13:10:06.266Z,0.90
2017-12-30T13:12:40.704Z,0.70
2017-12-30T13:15:14.633Z,1.00
2017-12-30T13:17:48.437Z,0.50
2017-12-30T13:20:22.043Z,0.80
2017-12-30T13:22:55.728Z,0.70
2017-12-30T13:25:29.545Z,0.80
2017-12-30T13:28:03.265Z,0.63
2017-12-30T13:30:36.888Z,2.03
2017-12-30T13:33:11.353Z,0.80
2017-12-30T13:35:45.111Z,0.80
2017-12-30T13:38:18.867Z,1.20
2017-12-30T13:40:52.561Z,0.90
2017-12-30T13:43:26.500Z,1.70
2017-12-30T13:46:01.064Z,1.37
2017-12-30T13:48:35.926Z,1.70
2017-12-30T13:51:10.512Z,1.70
2017-12-30T13:53:44.613Z,2.30
2017-12-30T13:56:18.229Z,1.77
2017-12-30T13:58:52.098Z,1.67
2017-12-30T14:01:26.461Z,1.10
2017-12-30T14:04:01.337Z,1.40
2017-12-30T14:06:36.817Z,1.27
2017-12-30T14:09:12.018Z,2.33
2017-12-30T14:11:46.560Z,2.00
2017-12-30T14:14:21.408Z,1.60
2017-12-30T14:16:56.297Z,2.57
2017-12-30T14:19:31.130Z,2.30
2017-12-30T14:22:05.388Z,2.77
2017-12-30T14:24:39.793Z,2.47
2017-12-30T14:27:14.348Z,1.63
2017-12-30T14:29:48.741Z,2.40
2017-12-30T14:32:23.302Z,2.00
2017-12-30T14:34:58.242Z,2.60
2017-12-30T14:37:33.366Z,2.40
2017-12-30T14:40:08.817Z,2.23
2017-12-30T14:42:43.537Z,3.00
2017-12-30T14:45:17.564Z,3.00
2017-12-30T14:47:51.228Z,3.70
2017-12-30T14:50:25.799Z,3.53
2017-12-30T14:53:00.478Z,3.50
2017-12-30T14:55:34.496Z,4.13
2017-12-30T14:58:08.166Z,3.77
2017-12-30T15:00:42.632Z,3.37
2017-12-30T15:03:16.525Z,4.37
2017-12-30T15:05:50.257Z,4.10
2017-12-30T15:08:25.000Z,4.57
2017-12-30T15:10:59.006Z,5.23
2017-12-30T15:13:32.820Z,5.27
2017-12-30T15:16:06.581Z,6.47
2017-12-30T15:18:41.237Z,25.90
2017-12-30T15:21:15.824Z,9.87
2017-12-30T15:23:50.700Z,15.93
2017-12-30T15:26:24.573Z,17.80
2017-12-30T15:28:58.244Z,15.83
2017-12-30T15:31:32.025Z,16.30
2017-12-30T15:34:05.778Z,14.90
2017-12-30T15:36:39.593Z,14.10
2017-12-30T15:39:13.372Z,13.03
2017-12-30T15:41:48.183Z,13.27
2017-12-30T15:44:22.399Z,10.43
2017-12-30T15:46:56.867Z,9.70
2017-12-30T15:49:30.744Z,8.83
2017-12-30T15:52:04.512Z,9.60
2017-12-30T15:54:38.088Z,8.47
2017-12-30T15:57:12.730Z,9.13
2017-12-30T15:59:47.469Z,8.00
2017-12-30T16:02:21.489Z,8.00
2017-12-30T16:04:55.965Z,8.53
2017-12-30T16:07:30.692Z,8.50
2017-12-30T16:10:05.822Z,7.40
2017-12-30T16:12:40.362Z,8.67
2017-12-30T16:15:15.189Z,8.00
2017-12-30T16:17:49.239Z,8.30
2017-12-30T16:20:23.041Z,9.57
2017-12-30T16:22:58.355Z,8.10
2017-12-30T16:25:33.053Z,7.60
2017-12-30T16:28:07.088Z,8.63
2017-12-30T16:30:41.599Z,6.20
2017-12-30T16:33:16.294Z,8.87
2017-12-30T16:35:50.318Z,7.30
2017-12-30T16:38:24.849Z,10.07
2017-12-30T16:40:59.193Z,7.43
2017-12-30T16:43:32.764Z,6.77
2017-12-30T16:46:06.509Z,8.10
2017-12-30T16:48:40.271Z,6.60
2017-12-30T16:51:14.730Z,6.23
2017-12-30T16:53:49.605Z,7.00
2017-12-30T16:56:24.790Z,6.70
2017-12-30T16:59:00.981Z,7.40
2017-12-30T17:01:36.028Z,8.03
2017-12-30T17:04:11.127Z,8.30
2017-12-30T17:06:46.436Z,6.80
2017-12-30T17:09:20.812Z,7.67
2017-12-30T17:11:56.378Z,8.50
2017-12-30T17:14:30.944Z,7.73
2017-12-30T17:17:04.914Z,8.77
2017-12-30T17:19:39.709Z,6.70
2017-12-30T17:22:14.078Z,6.40
2017-12-30T17:24:49.077Z,8.90
2017-12-30T17:27:23.158Z,7.47
2017-12-30T17:29:57.813Z,7.00
2017-12-30T17:32:31.716Z,6.20
2017-12-30T17:35:06.245Z,6.63
2017-12-30T17:37:41.049Z,6.80
2017-12-30T17:40:15.020Z,6.20
2017-12-30T17:42:50.372Z,5.20
2017-12-30T17:45:24.407Z,6.10
2017-12-30T17:47:58.044Z,4.47
2017-12-30T17:50:31.824Z,5.33
2017-12-30T17:53:05.572Z,6.43
2017-12-30T17:55:40.127Z,6.63
2017-12-30T17:58:14.122Z,6.80
2017-12-30T18:00:48.848Z,5.63
2017-12-30T18:03:22.952Z,5.63
2017-12-30T18:05:57.409Z,5.67
2017-12-30T18:08:31.339Z,6.17
2017-12-30T18:11:05.818Z,7.37
2017-12-30T18:13:39.749Z,5.53
2017-12-30T18:16:15.029Z,5.60
2017-12-30T18:18:49.909Z,6.23
2017-12-30T18:21:24.637Z,4.30
2017-12-30T18:23:58.431Z,4.40
2017-12-30T18:26:33.032Z,4.10
2017-12-30T18:29:07.873Z,5.30
2017-12-30T18:31:42.588Z,5.30
2017-12-30T18:34:17.331Z,4.30
2017-12-30T18:36:51.405Z,3.70
2017-12-30T18:39:25.065Z,4.43
2017-12-30T18:41:58.865Z,6.00
2017-12-30T18:44:32.652Z,4.70
2017-12-30T18:47:07.183Z,5.43
2017-12-30T18:49:41.926Z,4.63
2017-12-30T18:52:16.561Z,5.13
2017-12-30T18:54:51.376Z,4.70
2017-12-30T18:57:26.183Z,6.20
2017-12-30T19:00:00.275Z,5.13
2017-12-30T19:02:34.092Z,6.33
2017-12-30T19:05:07.761Z,6.73
2017-12-30T19:07:41.448Z,6.33
2017-12-30T19:10:15.184Z,6.80
2017-12-30T19:12:49.567Z,6.97
2017-12-30T19:15:24.969Z,6.80
2017-12-30T19:18:00.636Z,6.87
2017-12-30T19:20:35.109Z,6.90
2017-12-30T19:23:10.312Z,7.40
2017-12-30T19:25:44.733Z,7.33
2017-12-30T19:28:19.448Z,7.60
2017-12-30T19:30:53.443Z,9.40
2017-12-30T19:33:28.060Z,17.40
2017-12-30T19:36:02.801Z,6.30
2017-12-30T19:38:37.605Z,8.20
2017-12-30T19:41:11.720Z,6.80
2017-12-30T19:43:45.513Z,7.20
2017-12-30T19:46:19.271Z,7.27
2017-12-30T19:48:53.095Z,7.27
2017-12-30T19:51:27.698Z,7.37
2017-12-30T19:54:02.413Z,6.67
2017-12-30T19:56:37.032Z,5.93
2017-12-30T19:59:13.671Z,6.70
2017-12-30T20:01:47.847Z,7.00
2017-12-30T20:04:23.213Z,7.20
2017-12-30T20:06:57.050Z,6.53
2017-12-30T20:09:31.712Z,6.83
2017-12-30T20:12:06.521Z,7.07
2017-12-30T20:14:41.540Z,7.00
2017-12-30T20:17:16.085Z,6.33
2017-12-30T20:19:49.915Z,6.43
2017-12-30T20:22:24.861Z,6.10
2017-12-30T20:25:00.109Z,6.60
2017-12-30T20:27:33.972Z,7.37
2017-12-30T20:30:08.516Z,8.13
2017-12-30T20:32:42.612Z,6.33
2017-12-30T20:35:16.377Z,5.93
2017-12-30T20:37:50.920Z,6.10
2017-12-30T20:40:24.627Z,7.20
2017-12-30T20:43:00.068Z,6.63
2017-12-30T20:45:34.925Z,7.50
2017-12-30T20:48:09.640Z,6.80
2017-12-30T20:50:44.429Z,7.60
2017-12-30T20:53:18.501Z,7.60
2017-12-30T20:55:54.532Z,7.40
2017-12-30T20:58:29.688Z,7.20
2017-12-30T21:01:05.067Z,6.10
2017-12-30T21:03:40.054Z,16.60
2017-12-30T21:06:14.869Z,6.60
2017-12-30T21:08:49.472Z,29.13
2017-12-30T21:11:24.330Z,7.40
2017-12-30T21:13:58.305Z,5.13
2017-12-30T21:16:32.750Z,5.80
2017-12-30T21:19:06.772Z,6.50
2017-12-30T21:21:40.494Z,6.77
2017-12-30T21:24:14.302Z,5.20
2017-12-30T21:26:48.872Z,5.57
2017-12-30T21:29:23.734Z,5.73
2017-12-30T21:31:57.794Z,7.20
2017-12-30T21:34:32.370Z,6.37
2017-12-30T21:37:07.080Z,5.73
2017-12-30T21:39:41.926Z,4.60
2017-12-30T21:42:16.073Z,4.10
2017-12-30T21:44:49.888Z,4.57
2017-12-30T21:47:25.176Z,5.20
2017-12-30T21:50:00.837Z,4.23
2017-12-30T21:52:35.609Z,3.70
2017-12-30T21:55:11.560Z,3.00
2017-12-30T21:57:45.699Z,3.70
2017-12-30T22:00:19.416Z,3.70
2017-12-30T22:02:54.446Z,4.60
2017-12-30T22:05:29.596Z,4.17
2017-12-30T22:08:03.631Z,5.50
2017-12-30T22:10:37.389Z,5.13
2017-12-30T22:13:11.043Z,5.87
2017-12-30T22:15:44.745Z,5.93
2017-12-30T22:18:18.469Z,5.40
2017-12-30T22:20:52.117Z,5.53
2017-12-30T22:23:26.025Z,5.60
2017-12-30T22:25:59.733Z,6.77
2017-12-30T22:28:33.408Z,7.50
2017-12-30T22:31:07.476Z,6.50
2017-12-30T22:33:42.956Z,6.27
2017-12-30T22:36:16.569Z,6.50
2017-12-30T22:38:51.209Z,11.37
2017-12-30T22:41:25.231Z,9.90
2017-12-30T22:43:58.972Z,7.30
2017-12-30T22:46:33.592Z,6.70
2017-12-30T22:49:08.481Z,7.33
2017-12-30T22:51:43.146Z,5.53
2017-12-30T22:54:17.120Z,7.97
2017-12-30T22:56:50.904Z,6.43
2017-12-30T22:59:25.466Z,7.00
2017-12-30T23:01:59.171Z,7.23
2017-12-30T23:04:32.940Z,7.37
2017-12-30T23:07:06.624Z,7.10
2017-12-30T23:09:40.278Z,6.17
2017-12-30T23:12:14.044Z,7.00
2017-12-30T23:14:47.784Z,7.57
2017-12-30T23:17:21.630Z,6.77
2017-12-30T23:19:56.323Z,8.60
2017-12-30T23:22:30.950Z,6.50
2017-12-30T23:25:05.775Z,7.50
2017-12-30T23:27:40.574Z,5.93
2017-12-30T23:30:14.615Z,7.20
2017-12-30T23:32:48.287Z,7.10
2017-12-30T23:35:22.739Z,6.80
2017-12-30T23:37:57.359Z,7.67
2017-12-30T23:40:31.231Z,6.67
2017-12-30T23:43:05.668Z,8.67
2017-12-30T23:45:39.662Z,5.77
2017-12-30T23:48:14.217Z,7.47
2017-12-30T23:50:48.228Z,6.17
2017-12-30T23:53:22.766Z,7.00
2017-12-30T23:55:57.561Z,4.90
2017-12-30T23:58:32.125Z,5.20
